sensor_id;sensor_type;location;lat;lon;timestamp;P1;durP1;ratioP1;P2;durP2;ratioP2
20976;SDS011;10647;51.016;3.720;2023-05-07T00:03:57;13.90;;;4.05;;
20976;SDS011;10647;51.016;3.720;2023-05-07T00:06:24;13.25;;;4.30;;
20976;SDS011;10647;51.016;3.720;2023-05-07T00:08:53;8.43;;;3.90;;
20976;SDS011;10647;51.016;3.720;2023-05-07T00:11:22;16.25;;;3.95;;
20976;SDS011;10647;51.016;3.720;2023-05-07T00:13:56;11.85;;;3.67;;
20976;SDS011;10647;51.016;3.720;2023-05-07T00:16:23;14.33;;;3.67;;
20976;SDS011;10647;51.016;3.720;2023-05-07T00:18:52;13.83;;;3.55;;
20976;SDS011;10647;51.016;3.720;2023-05-07T00:21:21;11.12;;;3.87;;
20976;SDS011;10647;51.016;3.720;2023-05-07T00:23:51;14.87;;;3.85;;
20976;SDS011;10647;51.016;3.720;2023-05-07T00:26:19;10.30;;;4.00;;
20976;SDS011;10647;51.016;3.720;2023-05-07T00:28:46;11.93;;;3.70;;
20976;SDS011;10647;51.016;3.720;2023-05-07T00:31:14;14.07;;;4.08;;
20976;SDS011;10647;51.016;3.720;2023-05-07T00:33:41;12.35;;;3.47;;
20976;SDS011;10647;51.016;3.720;2023-05-07T00:36:09;12.43;;;3.87;;
20976;SDS011;10647;51.016;3.720;2023-05-07T00:38:36;11.53;;;3.95;;
20976;SDS011;10647;51.016;3.720;2023-05-07T00:41:04;13.72;;;3.87;;
20976;SDS011;10647;51.016;3.720;2023-05-07T00:43:32;11.38;;;4.20;;
20976;SDS011;10647;51.016;3.720;2023-05-07T00:46:00;14.38;;;3.55;;
20976;SDS011;10647;51.016;3.720;2023-05-07T00:48:29;12.70;;;4.03;;
20976;SDS011;10647;51.016;3.720;2023-05-07T00:50:57;10.25;;;3.90;;
20976;SDS011;10647;51.016;3.720;2023-05-07T00:53:25;12.33;;;3.87;;
20976;SDS011;10647;51.016;3.720;2023-05-07T00:55:53;12.37;;;4.03;;
20976;SDS011;10647;51.016;3.720;2023-05-07T00:58:21;10.13;;;3.67;;
20976;SDS011;10647;51.016;3.720;2023-05-07T01:00:50;8.20;;;3.85;;
20976;SDS011;10647;51.016;3.720;2023-05-07T01:03:18;12.40;;;3.63;;
20976;SDS011;10647;51.016;3.720;2023-05-07T01:05:47;10.23;;;3.73;;
20976;SDS011;10647;51.016;3.720;2023-05-07T01:08:15;9.25;;;3.77;;
20976;SDS011;10647;51.016;3.720;2023-05-07T01:10:46;10.60;;;4.05;;
20976;SDS011;10647;51.016;3.720;2023-05-07T01:13:14;11.43;;;4.00;;
20976;SDS011;10647;51.016;3.720;2023-05-07T01:15:45;12.80;;;4.30;;
20976;SDS011;10647;51.016;3.720;2023-05-07T01:18:13;11.20;;;4.20;;
20976;SDS011;10647;51.016;3.720;2023-05-07T01:20:41;9.88;;;4.08;;
20976;SDS011;10647;51.016;3.720;2023-05-07T01:23:09;10.67;;;3.57;;
20976;SDS011;10647;51.016;3.720;2023-05-07T01:25:38;12.88;;;4.15;;
20976;SDS011;10647;51.016;3.720;2023-05-07T01:28:05;9.17;;;3.73;;
20976;SDS011;10647;51.016;3.720;2023-05-07T01:30:33;14.73;;;4.20;;
20976;SDS011;10647;51.016;3.720;2023-05-07T01:35:40;9.63;;;3.47;;
20976;SDS011;10647;51.016;3.720;2023-05-07T01:38:10;10.40;;;3.92;;
20976;SDS011;10647;51.016;3.720;2023-05-07T01:40:38;8.33;;;3.47;;
20976;SDS011;10647;51.016;3.720;2023-05-07T01:43:06;14.00;;;4.40;;
20976;SDS011;10647;51.016;3.720;2023-05-07T01:45:35;14.18;;;4.08;;
20976;SDS011;10647;51.016;3.720;2023-05-07T01:48:03;9.30;;;3.60;;
20976;SDS011;10647;51.016;3.720;2023-05-07T01:50:34;10.43;;;3.83;;
20976;SDS011;10647;51.016;3.720;2023-05-07T01:53:04;8.23;;;4.20;;
20976;SDS011;10647;51.016;3.720;2023-05-07T01:55:33;9.67;;;3.73;;
20976;SDS011;10647;51.016;3.720;2023-05-07T01:58:02;14.60;;;3.80;;
20976;SDS011;10647;51.016;3.720;2023-05-07T02:00:31;11.47;;;3.60;;
20976;SDS011;10647;51.016;3.720;2023-05-07T02:02:59;9.50;;;3.97;;
20976;SDS011;10647;51.016;3.720;2023-05-07T02:05:27;13.37;;;4.20;;
20976;SDS011;10647;51.016;3.720;2023-05-07T02:07:55;10.48;;;4.40;;
20976;SDS011;10647;51.016;3.720;2023-05-07T02:10:23;10.80;;;4.20;;
20976;SDS011;10647;51.016;3.720;2023-05-07T02:12:51;11.78;;;4.47;;
20976;SDS011;10647;51.016;3.720;2023-05-07T02:15:18;12.45;;;4.25;;
20976;SDS011;10647;51.016;3.720;2023-05-07T02:18:05;11.10;;;4.10;;
20976;SDS011;10647;51.016;3.720;2023-05-07T02:20:40;13.87;;;4.00;;
20976;SDS011;10647;51.016;3.720;2023-05-07T02:23:09;13.13;;;3.80;;
20976;SDS011;10647;51.016;3.720;2023-05-07T02:25:36;7.70;;;3.73;;
20976;SDS011;10647;51.016;3.720;2023-05-07T02:28:04;11.63;;;4.30;;
20976;SDS011;10647;51.016;3.720;2023-05-07T02:30:31;12.65;;;4.30;;
20976;SDS011;10647;51.016;3.720;2023-05-07T02:32:59;14.77;;;4.37;;
20976;SDS011;10647;51.016;3.720;2023-05-07T02:37:57;12.63;;;4.80;;
20976;SDS011;10647;51.016;3.720;2023-05-07T02:40:24;17.33;;;4.10;;
20976;SDS011;10647;51.016;3.720;2023-05-07T02:42:52;9.57;;;4.17;;
20976;SDS011;10647;51.016;3.720;2023-05-07T02:45:20;13.70;;;4.53;;
20976;SDS011;10647;51.016;3.720;2023-05-07T02:47:48;9.30;;;4.03;;
20976;SDS011;10647;51.016;3.720;2023-05-07T02:50:15;10.47;;;4.47;;
20976;SDS011;10647;51.016;3.720;2023-05-07T02:55:15;9.13;;;3.90;;
20976;SDS011;10647;51.016;3.720;2023-05-07T02:57:48;12.67;;;4.20;;
20976;SDS011;10647;51.016;3.720;2023-05-07T03:00:17;9.87;;;3.80;;
20976;SDS011;10647;51.016;3.720;2023-05-07T03:02:45;14.60;;;4.13;;
20976;SDS011;10647;51.016;3.720;2023-05-07T03:05:13;14.07;;;4.10;;
20976;SDS011;10647;51.016;3.720;2023-05-07T03:07:40;11.67;;;4.03;;
20976;SDS011;10647;51.016;3.720;2023-05-07T03:10:09;11.87;;;4.60;;
20976;SDS011;10647;51.016;3.720;2023-05-07T03:12:43;8.47;;;4.00;;
20976;SDS011;10647;51.016;3.720;2023-05-07T03:17:57;13.90;;;4.47;;
20976;SDS011;10647;51.016;3.720;2023-05-07T03:20:25;9.90;;;3.93;;
20976;SDS011;10647;51.016;3.720;2023-05-07T03:22:52;11.00;;;4.13;;
20976;SDS011;10647;51.016;3.720;2023-05-07T03:25:20;8.33;;;3.77;;
20976;SDS011;10647;51.016;3.720;2023-05-07T03:27:48;14.13;;;4.10;;
20976;SDS011;10647;51.016;3.720;2023-05-07T03:30:15;11.43;;;4.13;;
20976;SDS011;10647;51.016;3.720;2023-05-07T03:32:43;10.60;;;4.30;;
20976;SDS011;10647;51.016;3.720;2023-05-07T03:35:10;15.00;;;4.80;;
20976;SDS011;10647;51.016;3.720;2023-05-07T03:37:38;7.63;;;3.73;;
20976;SDS011;10647;51.016;3.720;2023-05-07T03:40:06;10.90;;;4.37;;
20976;SDS011;10647;51.016;3.720;2023-05-07T03:42:36;9.63;;;4.07;;
20976;SDS011;10647;51.016;3.720;2023-05-07T03:45:04;14.87;;;4.47;;
20976;SDS011;10647;51.016;3.720;2023-05-07T03:47:32;11.80;;;4.20;;
20976;SDS011;10647;51.016;3.720;2023-05-07T03:50:00;9.23;;;4.17;;
20976;SDS011;10647;51.016;3.720;2023-05-07T03:52:27;12.97;;;4.73;;
20976;SDS011;10647;51.016;3.720;2023-05-07T03:54:55;14.20;;;4.70;;
20976;SDS011;10647;51.016;3.720;2023-05-07T03:57:23;10.53;;;4.23;;
20976;SDS011;10647;51.016;3.720;2023-05-07T03:59:51;10.63;;;4.47;;
20976;SDS011;10647;51.016;3.720;2023-05-07T04:02:18;12.13;;;4.63;;
20976;SDS011;10647;51.016;3.720;2023-05-07T04:04:48;11.30;;;4.77;;
20976;SDS011;10647;51.016;3.720;2023-05-07T04:07:15;17.73;;;4.40;;
20976;SDS011;10647;51.016;3.720;2023-05-07T04:09:43;16.50;;;5.47;;
20976;SDS011;10647;51.016;3.720;2023-05-07T04:12:10;13.27;;;4.77;;
20976;SDS011;10647;51.016;3.720;2023-05-07T04:14:38;13.45;;;4.80;;
20976;SDS011;10647;51.016;3.720;2023-05-07T04:17:06;12.60;;;4.80;;
20976;SDS011;10647;51.016;3.720;2023-05-07T04:19:35;11.10;;;4.50;;
20976;SDS011;10647;51.016;3.720;2023-05-07T04:22:03;11.87;;;4.80;;
20976;SDS011;10647;51.016;3.720;2023-05-07T04:24:33;8.97;;;4.67;;
20976;SDS011;10647;51.016;3.720;2023-05-07T04:27:01;11.93;;;5.03;;
20976;SDS011;10647;51.016;3.720;2023-05-07T04:29:28;12.53;;;4.93;;
20976;SDS011;10647;51.016;3.720;2023-05-07T04:31:56;10.83;;;4.77;;
20976;SDS011;10647;51.016;3.720;2023-05-07T04:34:24;13.90;;;4.70;;
20976;SDS011;10647;51.016;3.720;2023-05-07T04:36:52;12.18;;;4.60;;
20976;SDS011;10647;51.016;3.720;2023-05-07T04:39:20;9.80;;;4.60;;
20976;SDS011;10647;51.016;3.720;2023-05-07T04:41:47;15.33;;;4.60;;
20976;SDS011;10647;51.016;3.720;2023-05-07T04:44:15;14.57;;;4.67;;
20976;SDS011;10647;51.016;3.720;2023-05-07T04:46:43;18.97;;;4.47;;
20976;SDS011;10647;51.016;3.720;2023-05-07T04:49:11;13.87;;;4.67;;
20976;SDS011;10647;51.016;3.720;2023-05-07T04:51:39;11.20;;;4.50;;
20976;SDS011;10647;51.016;3.720;2023-05-07T04:54:08;11.83;;;4.47;;
20976;SDS011;10647;51.016;3.720;2023-05-07T04:56:36;12.57;;;4.83;;
20976;SDS011;10647;51.016;3.720;2023-05-07T04:59:03;15.00;;;5.00;;
20976;SDS011;10647;51.016;3.720;2023-05-07T05:01:31;11.87;;;4.87;;
20976;SDS011;10647;51.016;3.720;2023-05-07T05:03:59;14.00;;;4.77;;
20976;SDS011;10647;51.016;3.720;2023-05-07T05:06:26;11.77;;;4.83;;
20976;SDS011;10647;51.016;3.720;2023-05-07T05:09:00;12.60;;;4.70;;
20976;SDS011;10647;51.016;3.720;2023-05-07T05:13:59;13.55;;;5.35;;
20976;SDS011;10647;51.016;3.720;2023-05-07T05:16:27;14.70;;;5.17;;
20976;SDS011;10647;51.016;3.720;2023-05-07T05:18:55;16.57;;;6.00;;
20976;SDS011;10647;51.016;3.720;2023-05-07T05:21:22;11.80;;;5.60;;
20976;SDS011;10647;51.016;3.720;2023-05-07T05:23:50;13.93;;;6.07;;
20976;SDS011;10647;51.016;3.720;2023-05-07T05:26:18;13.30;;;6.23;;
20976;SDS011;10647;51.016;3.720;2023-05-07T05:28:46;13.45;;;6.15;;
20976;SDS011;10647;51.016;3.720;2023-05-07T05:31:14;17.40;;;6.27;;
20976;SDS011;10647;51.016;3.720;2023-05-07T05:33:43;14.40;;;6.30;;
20976;SDS011;10647;51.016;3.720;2023-05-07T05:36:11;20.37;;;7.50;;
20976;SDS011;10647;51.016;3.720;2023-05-07T05:38:42;13.27;;;7.00;;
20976;SDS011;10647;51.016;3.720;2023-05-07T05:41:13;15.73;;;7.57;;
20976;SDS011;10647;51.016;3.720;2023-05-07T05:43:46;17.13;;;7.77;;
20976;SDS011;10647;51.016;3.720;2023-05-07T05:46:14;23.03;;;9.37;;
20976;SDS011;10647;51.016;3.720;2023-05-07T05:48:43;18.50;;;8.47;;
20976;SDS011;10647;51.016;3.720;2023-05-07T05:51:10;18.63;;;9.10;;
20976;SDS011;10647;51.016;3.720;2023-05-07T05:56:14;22.53;;;10.20;;
20976;SDS011;10647;51.016;3.720;2023-05-07T05:58:44;22.77;;;10.87;;
20976;SDS011;10647;51.016;3.720;2023-05-07T06:03:44;26.23;;;10.77;;
20976;SDS011;10647;51.016;3.720;2023-05-07T06:06:12;23.77;;;11.23;;
20976;SDS011;10647;51.016;3.720;2023-05-07T06:08:46;29.63;;;12.60;;
20976;SDS011;10647;51.016;3.720;2023-05-07T06:13:43;24.03;;;11.60;;
20976;SDS011;10647;51.016;3.720;2023-05-07T06:16:17;25.23;;;12.20;;
20976;SDS011;10647;51.016;3.720;2023-05-07T06:18:44;27.13;;;11.50;;
20976;SDS011;10647;51.016;3.720;2023-05-07T06:21:15;30.03;;;11.60;;
20976;SDS011;10647;51.016;3.720;2023-05-07T06:23:48;29.57;;;12.30;;
20976;SDS011;10647;51.016;3.720;2023-05-07T06:28:48;22.97;;;11.40;;
20976;SDS011;10647;51.016;3.720;2023-05-07T06:31:30;30.07;;;12.90;;
20976;SDS011;10647;51.016;3.720;2023-05-07T06:34:00;25.87;;;11.90;;
20976;SDS011;10647;51.016;3.720;2023-05-07T06:36:28;24.23;;;11.70;;
20976;SDS011;10647;51.016;3.720;2023-05-07T06:38:55;30.70;;;12.17;;
20976;SDS011;10647;51.016;3.720;2023-05-07T06:41:23;26.10;;;11.20;;
20976;SDS011;10647;51.016;3.720;2023-05-07T06:43:51;25.30;;;11.53;;
20976;SDS011;10647;51.016;3.720;2023-05-07T06:46:19;28.53;;;11.70;;
20976;SDS011;10647;51.016;3.720;2023-05-07T06:48:48;21.67;;;10.43;;
20976;SDS011;10647;51.016;3.720;2023-05-07T06:51:17;27.37;;;11.40;;
20976;SDS011;10647;51.016;3.720;2023-05-07T06:53:44;26.17;;;11.10;;
20976;SDS011;10647;51.016;3.720;2023-05-07T06:56:15;28.90;;;10.73;;
20976;SDS011;10647;51.016;3.720;2023-05-07T06:58:44;25.17;;;10.70;;
20976;SDS011;10647;51.016;3.720;2023-05-07T07:01:14;22.23;;;11.10;;
20976;SDS011;10647;51.016;3.720;2023-05-07T07:03:42;23.20;;;10.17;;
20976;SDS011;10647;51.016;3.720;2023-05-07T07:06:10;22.03;;;10.67;;
20976;SDS011;10647;51.016;3.720;2023-05-07T07:08:39;24.60;;;10.70;;
20976;SDS011;10647;51.016;3.720;2023-05-07T07:11:06;24.40;;;9.80;;
20976;SDS011;10647;51.016;3.720;2023-05-07T07:13:34;25.43;;;11.27;;
20976;SDS011;10647;51.016;3.720;2023-05-07T07:16:07;21.67;;;10.47;;
20976;SDS011;10647;51.016;3.720;2023-05-07T07:18:34;23.33;;;9.40;;
20976;SDS011;10647;51.016;3.720;2023-05-07T07:23:49;30.57;;;10.90;;
20976;SDS011;10647;51.016;3.720;2023-05-07T07:26:17;23.80;;;9.87;;
20976;SDS011;10647;51.016;3.720;2023-05-07T07:28:47;29.10;;;10.78;;
20976;SDS011;10647;51.016;3.720;2023-05-07T07:31:16;23.10;;;10.10;;
20976;SDS011;10647;51.016;3.720;2023-05-07T07:33:44;28.60;;;10.50;;
20976;SDS011;10647;51.016;3.720;2023-05-07T07:36:11;23.87;;;9.50;;
20976;SDS011;10647;51.016;3.720;2023-05-07T07:38:39;27.77;;;10.30;;
20976;SDS011;10647;51.016;3.720;2023-05-07T07:41:07;28.10;;;10.43;;
20976;SDS011;10647;51.016;3.720;2023-05-07T07:43:35;24.33;;;10.20;;
20976;SDS011;10647;51.016;3.720;2023-05-07T07:46:03;26.57;;;10.50;;
20976;SDS011;10647;51.016;3.720;2023-05-07T07:48:31;25.97;;;10.07;;
20976;SDS011;10647;51.016;3.720;2023-05-07T07:50:59;27.87;;;10.27;;
20976;SDS011;10647;51.016;3.720;2023-05-07T07:53:26;22.77;;;9.20;;
20976;SDS011;10647;51.016;3.720;2023-05-07T07:55:54;27.10;;;9.87;;
20976;SDS011;10647;51.016;3.720;2023-05-07T07:58:21;22.87;;;10.97;;
20976;SDS011;10647;51.016;3.720;2023-05-07T08:00:56;26.43;;;10.73;;
20976;SDS011;10647;51.016;3.720;2023-05-07T08:03:23;24.90;;;11.17;;
20976;SDS011;10647;51.016;3.720;2023-05-07T08:05:51;31.13;;;11.43;;
20976;SDS011;10647;51.016;3.720;2023-05-07T08:08:19;29.97;;;12.50;;
20976;SDS011;10647;51.016;3.720;2023-05-07T08:10:46;23.43;;;10.73;;
20976;SDS011;10647;51.016;3.720;2023-05-07T08:13:16;26.70;;;11.37;;
20976;SDS011;10647;51.016;3.720;2023-05-07T08:15:44;27.33;;;11.57;;
20976;SDS011;10647;51.016;3.720;2023-05-07T08:18:14;25.83;;;10.80;;
20976;SDS011;10647;51.016;3.720;2023-05-07T08:20:41;24.87;;;10.20;;
20976;SDS011;10647;51.016;3.720;2023-05-07T08:23:09;27.27;;;10.63;;
20976;SDS011;10647;51.016;3.720;2023-05-07T08:25:38;26.90;;;11.07;;
20976;SDS011;10647;51.016;3.720;2023-05-07T08:28:06;24.45;;;11.18;;
20976;SDS011;10647;51.016;3.720;2023-05-07T08:30:33;24.17;;;10.53;;
20976;SDS011;10647;51.016;3.720;2023-05-07T08:33:01;18.65;;;9.30;;
20976;SDS011;10647;51.016;3.720;2023-05-07T08:35:28;28.93;;;11.23;;
20976;SDS011;10647;51.016;3.720;2023-05-07T08:37:56;21.10;;;10.28;;
20976;SDS011;10647;51.016;3.720;2023-05-07T08:40:25;21.23;;;9.53;;
20976;SDS011;10647;51.016;3.720;2023-05-07T08:42:54;24.00;;;9.07;;
20976;SDS011;10647;51.016;3.720;2023-05-07T08:48:00;21.23;;;8.95;;
20976;SDS011;10647;51.016;3.720;2023-05-07T08:50:29;20.70;;;9.70;;
20976;SDS011;10647;51.016;3.720;2023-05-07T08:52:57;27.13;;;10.43;;
20976;SDS011;10647;51.016;3.720;2023-05-07T08:55:25;20.07;;;9.17;;
20976;SDS011;10647;51.016;3.720;2023-05-07T08:57:57;20.57;;;10.75;;
20976;SDS011;10647;51.016;3.720;2023-05-07T09:00:25;23.30;;;8.73;;
20976;SDS011;10647;51.016;3.720;2023-05-07T09:02:53;19.25;;;7.92;;
20976;SDS011;10647;51.016;3.720;2023-05-07T09:05:21;19.95;;;8.60;;
20976;SDS011;10647;51.016;3.720;2023-05-07T09:07:50;20.57;;;9.48;;
20976;SDS011;10647;51.016;3.720;2023-05-07T09:10:17;17.98;;;9.05;;
20976;SDS011;10647;51.016;3.720;2023-05-07T09:12:46;17.33;;;7.90;;
20976;SDS011;10647;51.016;3.720;2023-05-07T09:15:13;15.53;;;7.33;;
20976;SDS011;10647;51.016;3.720;2023-05-07T09:17:41;22.82;;;8.00;;
20976;SDS011;10647;51.016;3.720;2023-05-07T09:20:10;15.75;;;7.45;;
20976;SDS011;10647;51.016;3.720;2023-05-07T09:22:38;17.57;;;7.15;;
20976;SDS011;10647;51.016;3.720;2023-05-07T09:25:06;20.25;;;9.20;;
20976;SDS011;10647;51.016;3.720;2023-05-07T09:27:35;17.92;;;8.90;;
20976;SDS011;10647;51.016;3.720;2023-05-07T09:30:05;16.65;;;8.20;;
20976;SDS011;10647;51.016;3.720;2023-05-07T09:32:36;24.02;;;8.70;;
20976;SDS011;10647;51.016;3.720;2023-05-07T09:35:04;21.10;;;9.00;;
20976;SDS011;10647;51.016;3.720;2023-05-07T09:37:33;16.70;;;7.58;;
20976;SDS011;10647;51.016;3.720;2023-05-07T09:40:02;14.38;;;7.67;;
20976;SDS011;10647;51.016;3.720;2023-05-07T09:42:29;16.35;;;5.67;;
20976;SDS011;10647;51.016;3.720;2023-05-07T09:44:58;9.75;;;5.37;;
20976;SDS011;10647;51.016;3.720;2023-05-07T09:47:26;15.20;;;6.50;;
20976;SDS011;10647;51.016;3.720;2023-05-07T09:49:56;16.40;;;6.10;;
20976;SDS011;10647;51.016;3.720;2023-05-07T09:52:26;14.00;;;5.20;;
20976;SDS011;10647;51.016;3.720;2023-05-07T09:54:56;12.63;;;6.42;;
20976;SDS011;10647;51.016;3.720;2023-05-07T09:57:26;10.15;;;6.08;;
20976;SDS011;10647;51.016;3.720;2023-05-07T09:59:55;12.18;;;4.67;;
20976;SDS011;10647;51.016;3.720;2023-05-07T10:02:25;11.45;;;4.35;;
20976;SDS011;10647;51.016;3.720;2023-05-07T10:04:55;11.40;;;4.50;;
20976;SDS011;10647;51.016;3.720;2023-05-07T10:07:22;9.68;;;4.87;;
20976;SDS011;10647;51.016;3.720;2023-05-07T10:09:51;13.20;;;5.30;;
20976;SDS011;10647;51.016;3.720;2023-05-07T10:12:21;7.80;;;3.42;;
20976;SDS011;10647;51.016;3.720;2023-05-07T10:14:50;8.48;;;3.70;;
20976;SDS011;10647;51.016;3.720;2023-05-07T10:17:20;8.18;;;3.45;;
20976;SDS011;10647;51.016;3.720;2023-05-07T10:19:50;10.38;;;4.10;;
20976;SDS011;10647;51.016;3.720;2023-05-07T10:22:19;14.38;;;4.05;;
20976;SDS011;10647;51.016;3.720;2023-05-07T10:24:48;10.68;;;3.77;;
20976;SDS011;10647;51.016;3.720;2023-05-07T10:27:20;10.20;;;3.85;;
20976;SDS011;10647;51.016;3.720;2023-05-07T10:32:39;8.23;;;3.12;;
20976;SDS011;10647;51.016;3.720;2023-05-07T10:35:30;7.83;;;2.58;;
20976;SDS011;10647;51.016;3.720;2023-05-07T10:38:01;6.03;;;2.90;;
20976;SDS011;10647;51.016;3.720;2023-05-07T10:40:30;6.70;;;3.15;;
20976;SDS011;10647;51.016;3.720;2023-05-07T10:42:58;7.95;;;3.20;;
20976;SDS011;10647;51.016;3.720;2023-05-07T10:45:29;12.40;;;3.35;;
20976;SDS011;10647;51.016;3.720;2023-05-07T10:48:06;7.80;;;3.30;;
20976;SDS011;10647;51.016;3.720;2023-05-07T10:50:39;7.92;;;3.10;;
20976;SDS011;10647;51.016;3.720;2023-05-07T10:55:51;7.25;;;2.85;;
20976;SDS011;10647;51.016;3.720;2023-05-07T10:58:24;7.62;;;2.90;;
20976;SDS011;10647;51.016;3.720;2023-05-07T11:00:57;7.45;;;2.98;;
20976;SDS011;10647;51.016;3.720;2023-05-07T11:03:25;6.12;;;2.60;;
20976;SDS011;10647;51.016;3.720;2023-05-07T11:06:09;6.53;;;2.92;;
20976;SDS011;10647;51.016;3.720;2023-05-07T11:08:54;9.60;;;3.30;;
20976;SDS011;10647;51.016;3.720;2023-05-07T11:11:44;9.00;;;3.45;;
20976;SDS011;10647;51.016;3.720;2023-05-07T11:14:09;6.10;;;2.77;;
20976;SDS011;10647;51.016;3.720;2023-05-07T11:16:37;7.05;;;3.17;;
20976;SDS011;10647;51.016;3.720;2023-05-07T11:19:06;4.78;;;3.10;;
20976;SDS011;10647;51.016;3.720;2023-05-07T11:21:38;4.80;;;2.62;;
20976;SDS011;10647;51.016;3.720;2023-05-07T11:24:11;9.23;;;2.95;;
20976;SDS011;10647;51.016;3.720;2023-05-07T11:26:43;7.58;;;2.70;;
20976;SDS011;10647;51.016;3.720;2023-05-07T11:29:16;7.65;;;3.12;;
20976;SDS011;10647;51.016;3.720;2023-05-07T11:31:51;5.00;;;2.90;;
20976;SDS011;10647;51.016;3.720;2023-05-07T11:34:26;6.35;;;3.25;;
20976;SDS011;10647;51.016;3.720;2023-05-07T11:36:51;5.22;;;2.83;;
20976;SDS011;10647;51.016;3.720;2023-05-07T11:39:25;6.10;;;3.05;;
20976;SDS011;10647;51.016;3.720;2023-05-07T11:41:55;6.53;;;3.30;;
20976;SDS011;10647;51.016;3.720;2023-05-07T11:44:23;6.47;;;3.67;;
20976;SDS011;10647;51.016;3.720;2023-05-07T11:46:50;5.47;;;3.12;;
20976;SDS011;10647;51.016;3.720;2023-05-07T11:49:19;6.92;;;3.02;;
20976;SDS011;10647;51.016;3.720;2023-05-07T11:51:46;7.50;;;2.98;;
20976;SDS011;10647;51.016;3.720;2023-05-07T11:54:17;5.25;;;2.80;;
20976;SDS011;10647;51.016;3.720;2023-05-07T11:56:45;4.30;;;2.67;;
20976;SDS011;10647;51.016;3.720;2023-05-07T11:59:16;3.80;;;2.98;;
20976;SDS011;10647;51.016;3.720;2023-05-07T12:01:45;7.15;;;3.12;;
20976;SDS011;10647;51.016;3.720;2023-05-07T12:04:13;6.80;;;3.05;;
20976;SDS011;10647;51.016;3.720;2023-05-07T12:06:40;4.92;;;3.02;;
20976;SDS011;10647;51.016;3.720;2023-05-07T12:09:08;4.08;;;2.85;;
20976;SDS011;10647;51.016;3.720;2023-05-07T12:11:37;7.53;;;2.85;;
20976;SDS011;10647;51.016;3.720;2023-05-07T12:14:05;6.30;;;3.33;;
20976;SDS011;10647;51.016;3.720;2023-05-07T12:16:33;5.05;;;2.83;;
20976;SDS011;10647;51.016;3.720;2023-05-07T12:19:00;5.45;;;2.72;;
20976;SDS011;10647;51.016;3.720;2023-05-07T12:21:29;5.22;;;2.20;;
20976;SDS011;10647;51.016;3.720;2023-05-07T12:23:56;4.72;;;2.20;;
20976;SDS011;10647;51.016;3.720;2023-05-07T12:26:24;3.90;;;2.27;;
20976;SDS011;10647;51.016;3.720;2023-05-07T12:28:52;4.03;;;2.35;;
20976;SDS011;10647;51.016;3.720;2023-05-07T12:31:19;4.35;;;2.55;;
20976;SDS011;10647;51.016;3.720;2023-05-07T12:33:47;6.35;;;2.72;;
20976;SDS011;10647;51.016;3.720;2023-05-07T12:36:15;4.87;;;2.70;;
20976;SDS011;10647;51.016;3.720;2023-05-07T12:38:42;4.78;;;2.62;;
20976;SDS011;10647;51.016;3.720;2023-05-07T12:41:11;3.77;;;2.75;;
20976;SDS011;10647;51.016;3.720;2023-05-07T12:43:38;5.25;;;2.80;;
20976;SDS011;10647;51.016;3.720;2023-05-07T12:46:06;5.97;;;2.70;;
20976;SDS011;10647;51.016;3.720;2023-05-07T12:48:35;4.50;;;2.40;;
20976;SDS011;10647;51.016;3.720;2023-05-07T12:51:04;5.75;;;2.55;;
20976;SDS011;10647;51.016;3.720;2023-05-07T12:53:34;4.30;;;2.70;;
20976;SDS011;10647;51.016;3.720;2023-05-07T12:56:05;5.55;;;3.17;;
20976;SDS011;10647;51.016;3.720;2023-05-07T12:58:33;6.58;;;2.95;;
20976;SDS011;10647;51.016;3.720;2023-05-07T13:01:06;4.85;;;2.90;;
20976;SDS011;10647;51.016;3.720;2023-05-07T13:03:36;3.95;;;2.60;;
20976;SDS011;10647;51.016;3.720;2023-05-07T13:06:05;4.28;;;2.40;;
20976;SDS011;10647;51.016;3.720;2023-05-07T13:08:39;5.08;;;2.30;;
20976;SDS011;10647;51.016;3.720;2023-05-07T13:11:09;6.72;;;2.42;;
20976;SDS011;10647;51.016;3.720;2023-05-07T13:13:38;6.78;;;2.20;;
20976;SDS011;10647;51.016;3.720;2023-05-07T13:16:08;5.92;;;2.12;;
20976;SDS011;10647;51.016;3.720;2023-05-07T13:18:38;6.42;;;2.30;;
20976;SDS011;10647;51.016;3.720;2023-05-07T13:21:06;3.17;;;2.00;;
20976;SDS011;10647;51.016;3.720;2023-05-07T13:23:34;6.20;;;2.72;;
20976;SDS011;10647;51.016;3.720;2023-05-07T13:26:03;5.10;;;2.90;;
20976;SDS011;10647;51.016;3.720;2023-05-07T13:28:31;4.75;;;2.87;;
20976;SDS011;10647;51.016;3.720;2023-05-07T13:30:58;4.08;;;2.58;;
20976;SDS011;10647;51.016;3.720;2023-05-07T13:33:26;6.47;;;2.98;;
20976;SDS011;10647;51.016;3.720;2023-05-07T13:35:53;5.45;;;2.80;;
20976;SDS011;10647;51.016;3.720;2023-05-07T13:38:23;5.17;;;2.60;;
20976;SDS011;10647;51.016;3.720;2023-05-07T13:40:50;4.42;;;2.75;;
20976;SDS011;10647;51.016;3.720;2023-05-07T13:43:18;5.90;;;2.85;;
20976;SDS011;10647;51.016;3.720;2023-05-07T13:45:45;5.15;;;2.92;;
20976;SDS011;10647;51.016;3.720;2023-05-07T13:48:13;4.95;;;2.87;;
20976;SDS011;10647;51.016;3.720;2023-05-07T13:50:40;5.20;;;2.77;;
20976;SDS011;10647;51.016;3.720;2023-05-07T13:53:08;5.80;;;3.15;;
20976;SDS011;10647;51.016;3.720;2023-05-07T13:55:36;5.83;;;3.80;;
20976;SDS011;10647;51.016;3.720;2023-05-07T13:58:03;5.05;;;3.50;;
20976;SDS011;10647;51.016;3.720;2023-05-07T14:00:30;6.70;;;3.22;;
20976;SDS011;10647;51.016;3.720;2023-05-07T14:02:58;6.15;;;3.27;;
20976;SDS011;10647;51.016;3.720;2023-05-07T14:05:25;6.30;;;3.50;;
20976;SDS011;10647;51.016;3.720;2023-05-07T14:07:55;6.58;;;3.45;;
20976;SDS011;10647;51.016;3.720;2023-05-07T14:10:24;7.17;;;3.60;;
20976;SDS011;10647;51.016;3.720;2023-05-07T14:12:52;11.08;;;4.03;;
20976;SDS011;10647;51.016;3.720;2023-05-07T14:15:20;5.37;;;3.25;;
20976;SDS011;10647;51.016;3.720;2023-05-07T14:17:47;6.83;;;3.40;;
20976;SDS011;10647;51.016;3.720;2023-05-07T14:20:15;5.00;;;3.10;;
20976;SDS011;10647;51.016;3.720;2023-05-07T14:22:42;6.75;;;4.00;;
20976;SDS011;10647;51.016;3.720;2023-05-07T14:25:11;8.48;;;3.85;;
20976;SDS011;10647;51.016;3.720;2023-05-07T14:27:39;5.40;;;4.30;;
20976;SDS011;10647;51.016;3.720;2023-05-07T14:30:06;9.10;;;7.05;;
20976;SDS011;10647;51.016;3.720;2023-05-07T14:32:34;11.53;;;6.60;;
20976;SDS011;10647;51.016;3.720;2023-05-07T14:35:02;9.43;;;6.42;;
20976;SDS011;10647;51.016;3.720;2023-05-07T14:37:30;10.68;;;6.70;;
20976;SDS011;10647;51.016;3.720;2023-05-07T14:39:58;11.88;;;7.50;;
20976;SDS011;10647;51.016;3.720;2023-05-07T14:42:25;10.88;;;7.17;;
20976;SDS011;10647;51.016;3.720;2023-05-07T14:44:53;11.15;;;7.03;;
20976;SDS011;10647;51.016;3.720;2023-05-07T14:47:21;12.35;;;7.30;;
20976;SDS011;10647;51.016;3.720;2023-05-07T14:49:49;11.90;;;7.08;;
20976;SDS011;10647;51.016;3.720;2023-05-07T14:52:17;11.80;;;7.33;;
20976;SDS011;10647;51.016;3.720;2023-05-07T14:54:44;14.35;;;7.28;;
20976;SDS011;10647;51.016;3.720;2023-05-07T14:57:13;18.62;;;8.70;;
20976;SDS011;10647;51.016;3.720;2023-05-07T14:59:42;14.58;;;8.28;;
20976;SDS011;10647;51.016;3.720;2023-05-07T15:02:11;17.25;;;8.15;;
20976;SDS011;10647;51.016;3.720;2023-05-07T15:04:39;12.93;;;8.80;;
20976;SDS011;10647;51.016;3.720;2023-05-07T15:07:08;14.38;;;7.60;;
20976;SDS011;10647;51.016;3.720;2023-05-07T15:09:36;14.70;;;8.08;;
20976;SDS011;10647;51.016;3.720;2023-05-07T15:12:03;13.62;;;7.40;;
20976;SDS011;10647;51.016;3.720;2023-05-07T15:14:31;11.38;;;6.20;;
20976;SDS011;10647;51.016;3.720;2023-05-07T15:16:58;11.15;;;6.10;;
20976;SDS011;10647;51.016;3.720;2023-05-07T15:19:26;9.73;;;6.28;;
20976;SDS011;10647;51.016;3.720;2023-05-07T15:21:56;10.70;;;6.33;;